Wednesday, June 20, 2018, 3:42 AM EDT
Back to Local

KCAR, Caribou Municipal Airport

Location: Caribou, ME, United States Lat: 46.867
Local Time: 3:42 AM EDT ( 7:42 GMT) Lon: -68.017
Time Zone: US/Eastern Elev: 626 ft

Show me the last for .
Show Decoded

2018-06-20 02:54 METAR KCAR 200654Z AUTO 21003KT 10SM CLR 10/06 A2974 RMK AO2 SLP074 T01000056 =
2018-06-20 01:54 METAR KCAR 200554Z AUTO 25005KT 10SM CLR 12/06 A2974 RMK AO2 SLP073 T01170056
                 10183 20111 50001 =
2018-06-20 00:54 METAR KCAR 200454Z AUTO 26004KT 10SM CLR 12/06 A2974 RMK AO2 SLP074 T01220056
                 402000122 =
2018-06-19 23:54 METAR KCAR 200354Z AUTO 27004KT 10SM CLR 13/06 A2973 RMK AO2 SLP072 T01280056 =
2018-06-19 22:54 METAR KCAR 200254Z AUTO 28003KT 10SM CLR 13/06 A2973 RMK AO2 SLP072 T01330061
                 51008 =
2018-06-19 21:54 METAR KCAR 200154Z AUTO 26004KT 10SM CLR 14/07 A2973 RMK AO2 SLP072 T01390067 =
2018-06-19 20:54 METAR KCAR 200054Z AUTO 00000KT 10SM CLR 15/08 A2972 RMK AO2 SLP068 T01500078 =
2018-06-19 19:54 METAR KCAR 192354Z AUTO 31006KT 10SM CLR 18/07 A2971 RMK AO2 SLP063 T01830067
                 10200 20172 53015 =
2018-06-19 18:54 METAR KCAR 192254Z AUTO 33011G22KT 10SM FEW060 19/07 A2969 RMK AO2 SLP056
                 T01940067 =
2018-06-19 17:54 METAR KCAR 192154Z AUTO 32013G23KT 10SM FEW060 19/07 A2968 RMK AO2 PK WND
                 30033/2101 SLP051 T01940072 =
2018-06-19 16:54 METAR KCAR 192054Z AUTO 32013G24KT 10SM FEW060 19/07 A2966 RMK AO2 PK WND
                 34030/2000 SLP047 T01940072 53007 =
2018-06-19 15:54 METAR KCAR 191954Z AUTO 32013G22KT 10SM SCT060 20/08 A2966 RMK AO2 PK WND
                 29028/1925 SLP044 T02000078 =
2018-06-19 14:54 METAR KCAR 191854Z AUTO 31012G22KT 10SM OVC055 18/07 A2964 RMK AO2 PK WND
                 33028/1810 SLP041 T01830072 =
2018-06-19 13:54 METAR KCAR 191754Z AUTO 32009G24KT 10SM OVC049 18/08 A2964 RMK AO2 PK WND
                 33029/1729 SLP040 T01780078 10189 20139 53002 =
2018-06-19 12:54 METAR KCAR 191654Z AUTO 32010G23KT 10SM BKN045 OVC055 18/08 A2963 RMK AO2 SLP034
                 T01780078 =
2018-06-19 11:54 METAR KCAR 191554Z AUTO 33013G25KT 10SM FEW037 SCT047 17/08 A2963 RMK AO2 SLP034
                 T01720083 =
2018-06-19 10:54 METAR KCAR 191454Z AUTO 31011G20KT 10SM BKN035 OVC045 16/08 A2964 RMK AO2 SLP037
                 T01560078 51009 =
2018-06-19 09:54 METAR KCAR 191354Z AUTO 32013G19KT 10SM BKN035 OVC042 16/08 A2964 RMK AO2 PK WND
                 31026/1314 SLP037 T01560078 =
2018-06-19 08:54 METAR KCAR 191254Z AUTO 33013G21KT 10SM FEW030 OVC038 14/07 A2963 RMK AO2 PK WND
                 33029/1200 SLP035 T01440072 =
2018-06-19 07:54 METAR KCAR 191154Z AUTO 33014G28KT 10SM BKN033 BKN048 15/07 A2961 RMK AO2 PK WND
                 33029/1143 SLP028 70060 T01500072 10172 20144 53032 =
2018-06-19 06:54 METAR KCAR 191054Z AUTO 33012G19KT 10SM CLR 16/09 A2957 RMK AO2 PK WND
                 33029/0955 SLP016 T01560089 =
2018-06-19 06:03 METAR KCAR 191003Z AUTO 33020G29KT 10SM SCT028 BKN037 16/09 A2955 RMK AO2 PK WND
                 33029/0955 T01560094 =
2018-06-19 05:54 METAR KCAR 190954Z AUTO 33014G26KT 10SM FEW021 BKN028 OVC035 16/11 A2954 RMK AO2
                 PK WND 33026/0954 SLP005 T01560111 =
2018-06-19 05:29 METAR KCAR 190929Z AUTO 32008G16KT 10SM BKN022 BKN028 16/13 A2953 RMK AO2
                 T01610128 =
2018-06-19 04:54 METAR KCAR 190854Z AUTO 32010G20KT 10SM SCT023 16/13 A2951 RMK AO2 SLP995
                 T01610128 53011 =
2018-06-19 03:54 METAR KCAR 190754Z AUTO 31008G15KT 10SM CLR 16/13 A2949 RMK AO2 SLP989 T01610128
                 =

Support USWX by starting your Amazon purchase here.